Terminal Aerodrome Forecast
Issued by NWS

Home | Current Version | Previous Version | Text Only | Print | Product List | Glossary On
Versions: 1 2 3 4 5 6 7 8 9 10 11 12 13 14 15 16
492
FTUS43 KJKL 231732
TAFSJS
TAF
KSJS 231732Z 2318/2418 20005KT P6SM SCT030 BKN045
     FM240100 15004KT P6SM SCT130
     FM241300 18006KT P6SM FEW035 SCT200
     FM241600 19008G16KT P6SM SCT035 SCT200=

USA.gov is the U.S. government's official web portal to all federal, state and local government web resources and services.